createdAt,value
2024-01-31T00:33:33.115Z,20.50
2024-01-31T00:38:38.784Z,19.10
2024-01-31T00:43:44.500Z,17.80
2024-01-31T00:48:50.037Z,18.30
2024-01-31T00:53:55.704Z,19.00
2024-01-31T00:59:02.018Z,23.00
2024-01-31T01:04:09.860Z,23.60
2024-01-31T01:09:15.761Z,23.20
2024-01-31T01:14:21.733Z,24.30
2024-01-31T01:19:27.443Z,24.10
2024-01-31T01:24:33.066Z,20.50
2024-01-31T01:29:38.687Z,19.00
2024-01-31T01:34:44.445Z,18.90
2024-01-31T01:39:50.082Z,22.00
2024-01-31T01:44:55.823Z,21.90
2024-01-31T01:50:04.197Z,21.50
2024-01-31T01:55:10.819Z,22.30
2024-01-31T02:00:19.926Z,21.30
2024-01-31T02:05:26.947Z,19.40
2024-01-31T02:10:32.897Z,16.30
2024-01-31T02:15:38.653Z,17.20
2024-01-31T02:20:44.559Z,18.80
2024-01-31T02:25:50.650Z,18.60
2024-01-31T02:30:56.393Z,18.50
2024-01-31T02:36:02.014Z,16.40
2024-01-31T02:41:08.553Z,15.10
2024-01-31T02:46:14.419Z,15.00
2024-01-31T02:51:19.961Z,15.80
2024-01-31T02:56:25.503Z,16.80
2024-01-31T03:01:31.143Z,16.80
2024-01-31T03:06:36.844Z,18.00
2024-01-31T03:11:42.617Z,16.30
2024-01-31T03:16:48.336Z,15.50
2024-01-31T03:21:53.956Z,15.60
2024-01-31T03:27:00.207Z,16.90
2024-01-31T03:32:06.885Z,17.80
2024-01-31T03:37:12.599Z,18.30
2024-01-31T03:42:18.336Z,18.80
2024-01-31T03:47:24.036Z,19.20
2024-01-31T03:52:29.643Z,17.70
2024-01-31T03:57:35.645Z,16.10
2024-01-31T04:02:41.088Z,16.60
2024-01-31T04:07:47.402Z,16.90
2024-01-31T04:12:53.928Z,17.50
2024-01-31T04:18:02.265Z,18.10
2024-01-31T04:23:08.326Z,17.20
2024-01-31T04:28:16.546Z,16.50
2024-01-31T04:33:24.161Z,15.90
2024-01-31T04:38:30.380Z,16.10
2024-01-31T04:43:35.925Z,17.00
2024-01-31T04:48:42.723Z,17.20
2024-01-31T04:53:48.513Z,17.60
2024-01-31T04:58:54.114Z,18.20
2024-01-31T05:03:59.878Z,16.30
2024-01-31T05:09:05.888Z,16.20
2024-01-31T05:14:11.568Z,17.60
2024-01-31T05:19:17.659Z,18.60
2024-01-31T05:24:23.591Z,19.10
2024-01-31T05:29:29.540Z,17.70
2024-01-31T05:34:35.201Z,16.30
2024-01-31T05:39:41.191Z,17.70
2024-01-31T05:44:46.807Z,18.90
2024-01-31T05:49:52.812Z,19.50
2024-01-31T05:54:58.545Z,16.80
2024-01-31T06:00:11.285Z,17.90
2024-01-31T06:05:19.101Z,19.00
2024-01-31T06:10:26.273Z,19.30
2024-01-31T06:15:32.064Z,19.00
2024-01-31T06:20:41.771Z,20.00
2024-01-31T06:25:49.063Z,18.20
2024-01-31T06:31:00.946Z,16.70
2024-01-31T06:36:09.173Z,18.80
2024-01-31T06:41:16.243Z,19.50
2024-01-31T06:46:22.025Z,19.70
2024-01-31T06:51:27.919Z,20.40
2024-01-31T06:56:36.349Z,19.00
2024-01-31T07:01:42.542Z,17.70
2024-01-31T07:06:48.384Z,19.40
2024-01-31T07:11:54.341Z,20.50
2024-01-31T07:16:59.880Z,20.50
2024-01-31T07:22:05.863Z,20.30
2024-01-31T07:27:11.770Z,18.90
2024-01-31T07:32:17.363Z,19.70
2024-01-31T07:37:23.119Z,21.00
2024-01-31T07:42:29.407Z,21.40
2024-01-31T07:47:38.257Z,20.20
2024-01-31T07:52:44.010Z,18.70
2024-01-31T07:57:49.616Z,19.50
2024-01-31T08:02:55.373Z,20.10
2024-01-31T08:08:01.508Z,21.00
2024-01-31T08:13:07.640Z,21.40
2024-01-31T08:18:13.625Z,19.30
2024-01-31T08:23:19.330Z,19.40
2024-01-31T08:28:25.048Z,19.90
2024-01-31T08:33:32.117Z,20.20
2024-01-31T08:38:40.459Z,21.30
2024-01-31T08:43:46.120Z,22.00
2024-01-31T08:48:52.300Z,20.10
2024-01-31T08:53:58.608Z,19.30
2024-01-31T08:59:04.448Z,20.50
2024-01-31T09:04:09.979Z,20.50
2024-01-31T09:09:16.818Z,21.20
2024-01-31T09:14:22.568Z,20.00
2024-01-31T09:19:28.659Z,17.20
2024-01-31T09:24:34.454Z,19.20
2024-01-31T09:29:42.444Z,19.60
2024-01-31T09:34:52.253Z,20.20
2024-01-31T09:39:59.486Z,22.00
2024-01-31T09:45:07.215Z,19.40
2024-01-31T09:50:13.660Z,18.40
2024-01-31T09:55:20.639Z,19.50
2024-01-31T10:00:27.976Z,19.30
2024-01-31T10:05:34.322Z,20.60
2024-01-31T10:10:40.220Z,21.20
2024-01-31T10:15:46.512Z,20.40
2024-01-31T10:20:53.649Z,17.40
2024-01-31T10:25:59.641Z,19.30
2024-01-31T10:31:05.960Z,18.10
2024-01-31T10:46:27.183Z,19.50
2024-01-31T10:51:34.928Z,19.80
2024-01-31T10:56:41.021Z,19.10
2024-01-31T11:01:55.703Z,19.90
2024-01-31T11:07:04.280Z,19.40
2024-01-31T11:12:15.534Z,18.60
2024-01-31T11:22:34.956Z,16.70
2024-01-31T11:27:41.389Z,17.90
2024-01-31T11:32:47.280Z,18.70
2024-01-31T11:37:54.037Z,18.90
2024-01-31T11:42:59.653Z,18.70
2024-01-31T11:48:06.499Z,19.50
2024-01-31T11:53:13.928Z,16.00
2024-01-31T11:58:19.719Z,14.80
2024-01-31T12:03:26.325Z,15.80
2024-01-31T12:08:34.941Z,15.60
2024-01-31T12:13:41.393Z,16.10
2024-01-31T12:18:47.532Z,16.40
2024-01-31T12:23:53.499Z,16.20
2024-01-31T12:28:59.194Z,14.40
2024-01-31T12:34:05.157Z,14.10
2024-01-31T12:39:16.932Z,14.40
2024-01-31T12:44:23.918Z,15.70
2024-01-31T12:49:33.578Z,16.20
2024-01-31T12:54:39.357Z,16.30
2024-01-31T12:59:44.996Z,15.30
2024-01-31T13:04:56.337Z,13.60
2024-01-31T13:10:02.746Z,13.20
2024-01-31T13:15:10.213Z,14.60
2024-01-31T13:20:17.184Z,14.30
2024-01-31T13:25:22.740Z,15.10
2024-01-31T13:30:28.834Z,14.80
2024-01-31T13:35:35.377Z,13.90
2024-01-31T13:40:41.312Z,15.90
2024-01-31T13:45:47.063Z,14.40
2024-01-31T13:50:52.608Z,12.10
2024-01-31T13:55:58.364Z,11.90
2024-01-31T14:01:04.323Z,14.30
2024-01-31T14:06:10.429Z,13.70
2024-01-31T14:11:21.462Z,12.60
2024-01-31T14:16:29.143Z,11.80
2024-01-31T14:21:36.241Z,17.40
2024-01-31T14:26:42.187Z,17.60
2024-01-31T14:31:48.286Z,11.00
2024-01-31T14:36:53.790Z,10.40
2024-01-31T14:41:59.730Z,13.10
2024-01-31T14:47:05.750Z,11.80
2024-01-31T14:52:11.774Z,14.30
2024-01-31T14:57:17.632Z,12.30
2024-01-31T15:02:24.708Z,11.70
2024-01-31T15:07:31.500Z,13.70
2024-01-31T15:12:37.307Z,14.90
2024-01-31T15:17:43.309Z,11.70
2024-01-31T15:22:49.647Z,12.50
2024-01-31T15:27:55.519Z,13.40
2024-01-31T15:33:01.338Z,13.20
2024-01-31T15:38:07.151Z,12.60
2024-01-31T15:43:12.900Z,11.30
2024-01-31T15:48:18.836Z,11.30
2024-01-31T15:53:24.812Z,12.20
2024-01-31T15:58:32.313Z,13.50
2024-01-31T16:03:38.196Z,13.00
2024-01-31T16:08:44.010Z,11.60
2024-01-31T16:13:49.826Z,13.20
2024-01-31T16:18:55.511Z,13.50
2024-01-31T16:24:01.593Z,14.30
2024-01-31T16:29:07.617Z,13.00
2024-01-31T16:34:20.877Z,14.20
2024-01-31T16:39:26.547Z,15.60
2024-01-31T16:44:32.537Z,15.40
2024-01-31T16:49:38.520Z,11.90
2024-01-31T16:54:44.148Z,12.20
2024-01-31T16:59:50.086Z,12.90
2024-01-31T17:04:55.882Z,14.00
2024-01-31T17:10:02.004Z,12.30
2024-01-31T17:15:08.708Z,12.50
2024-01-31T17:20:14.952Z,10.90
2024-01-31T17:25:20.643Z,24.70
2024-01-31T17:30:26.404Z,14.70
2024-01-31T17:35:33.789Z,20.70
2024-01-31T17:40:39.539Z,13.90
2024-01-31T17:45:45.134Z,12.80
2024-01-31T17:50:50.985Z,15.10
2024-01-31T17:55:57.966Z,15.10
2024-01-31T18:01:03.757Z,15.00
2024-01-31T18:06:09.552Z,13.80
2024-01-31T18:11:15.661Z,13.40
2024-01-31T18:16:21.415Z,16.20
2024-01-31T18:21:32.737Z,12.80
2024-01-31T18:26:39.059Z,12.50
2024-01-31T18:31:52.046Z,16.10
2024-01-31T18:37:00.215Z,16.30
2024-01-31T18:42:07.389Z,15.70
2024-01-31T18:47:12.980Z,15.40
2024-01-31T18:52:18.794Z,18.00
2024-01-31T18:57:24.514Z,16.20
2024-01-31T19:02:30.699Z,14.40
2024-01-31T19:07:38.371Z,13.50
2024-01-31T19:12:43.939Z,16.50
2024-01-31T19:17:51.087Z,19.20
2024-01-31T19:22:57.734Z,13.40
2024-01-31T19:28:04.211Z,13.20
2024-01-31T19:33:10.119Z,14.10
2024-01-31T19:38:15.837Z,18.70
2024-01-31T19:43:23.150Z,15.30
2024-01-31T19:48:29.539Z,13.90
2024-01-31T19:53:45.531Z,15.90
2024-01-31T19:58:52.281Z,16.10
2024-01-31T20:04:00.581Z,14.40
2024-01-31T20:09:06.585Z,13.10
2024-01-31T20:14:14.797Z,15.80
2024-01-31T20:19:20.963Z,16.20
2024-01-31T20:24:28.744Z,12.30
2024-01-31T20:29:38.982Z,7.90
2024-01-31T20:34:48.578Z,8.60
2024-01-31T20:39:55.176Z,9.70
2024-01-31T20:45:00.761Z,10.30
2024-01-31T20:50:08.723Z,8.70
2024-01-31T20:55:14.968Z,8.00
2024-01-31T21:00:21.558Z,7.80
2024-01-31T21:05:29.264Z,7.10
2024-01-31T21:10:35.249Z,6.80
2024-01-31T21:15:40.786Z,6.40
2024-01-31T21:20:46.582Z,5.70
2024-01-31T21:25:52.124Z,6.20
2024-01-31T21:30:57.970Z,6.90
2024-01-31T21:36:03.836Z,7.10
2024-01-31T21:41:09.699Z,8.00
2024-01-31T21:46:15.307Z,8.10
2024-01-31T21:51:21.213Z,9.80
2024-01-31T21:56:27.458Z,9.00
2024-01-31T22:01:35.644Z,10.80
2024-01-31T22:06:41.372Z,9.20
2024-01-31T22:11:47.327Z,8.30
2024-01-31T22:16:52.977Z,9.70
2024-01-31T22:21:58.695Z,10.60
2024-01-31T22:27:05.135Z,10.70
2024-01-31T22:32:11.536Z,10.10
2024-01-31T22:37:17.789Z,8.60
2024-01-31T22:42:23.862Z,8.90
2024-01-31T22:47:31.086Z,9.40
2024-01-31T22:52:39.260Z,8.90
2024-01-31T22:57:45.007Z,8.00
2024-01-31T23:02:50.559Z,9.20
2024-01-31T23:07:56.733Z,9.70
2024-01-31T23:13:02.696Z,9.30
2024-01-31T23:18:11.123Z,8.10
2024-01-31T23:23:16.853Z,7.10
2024-01-31T23:28:22.625Z,8.70
2024-01-31T23:33:28.770Z,8.80
2024-01-31T23:38:35.608Z,8.50
2024-01-31T23:43:41.487Z,7.90
2024-01-31T23:48:47.935Z,8.90
2024-01-31T23:53:53.960Z,9.10
2024-01-31T23:58:59.588Z,9.60
